createdAt,value
2018-07-03T00:04:40.409Z,1.23
2018-07-03T00:09:43.006Z,2.43
2018-07-03T00:14:45.654Z,2.07
2018-07-03T00:19:49.467Z,2.30
2018-07-03T00:24:52.095Z,2.23
2018-07-03T00:29:54.821Z,1.60
2018-07-03T00:34:57.451Z,1.50
2018-07-03T00:40:00.042Z,1.70
2018-07-03T00:45:02.724Z,1.60
2018-07-03T00:50:05.559Z,1.80
2018-07-03T00:55:08.152Z,2.17
2018-07-03T01:00:22.191Z,2.40
2018-07-03T01:05:24.769Z,2.93
2018-07-03T01:10:28.021Z,2.87
2018-07-03T01:15:30.891Z,3.07
2018-07-03T01:20:33.542Z,2.70
2018-07-03T01:25:36.170Z,2.73
2018-07-03T01:30:38.794Z,4.23
2018-07-03T01:35:41.449Z,3.97
2018-07-03T01:40:44.059Z,3.37
2018-07-03T01:45:46.671Z,2.10
2018-07-03T01:50:49.302Z,1.70
2018-07-03T01:55:51.966Z,1.50
2018-07-03T02:00:54.567Z,1.70
2018-07-03T02:05:57.187Z,1.50
2018-07-03T02:11:00.059Z,1.40
2018-07-03T02:16:05.211Z,1.20
2018-07-03T02:21:07.947Z,1.50
2018-07-03T02:26:10.601Z,1.40
2018-07-03T02:31:13.206Z,1.50
2018-07-03T02:36:15.834Z,1.60
2018-07-03T02:41:18.462Z,1.17
2018-07-03T02:46:21.115Z,1.57
2018-07-03T02:51:23.723Z,1.20
2018-07-03T02:56:26.444Z,1.50
2018-07-03T03:01:29.031Z,1.30
2018-07-03T03:06:31.695Z,1.40
2018-07-03T03:11:34.306Z,2.43
2018-07-03T03:16:36.951Z,1.90
2018-07-03T03:21:39.605Z,2.10
2018-07-03T03:26:42.222Z,1.90
2018-07-03T03:31:44.872Z,2.03
2018-07-03T03:36:47.554Z,1.37
2018-07-03T03:41:50.205Z,1.60
2018-07-03T03:46:52.802Z,1.30
2018-07-03T03:51:55.458Z,1.10
2018-07-03T03:56:58.138Z,1.60
2018-07-03T04:02:00.747Z,1.50
2018-07-03T04:07:03.409Z,1.70
2018-07-03T04:12:06.011Z,4.83
2018-07-03T04:17:08.658Z,3.57
2018-07-03T04:22:11.273Z,2.50
2018-07-03T04:27:13.912Z,1.87
2018-07-03T04:32:16.527Z,1.80
2018-07-03T04:37:19.266Z,1.70
2018-07-03T04:42:21.868Z,1.67
2018-07-03T04:47:24.495Z,1.87
2018-07-03T04:52:27.106Z,1.83
2018-07-03T04:57:29.703Z,1.80
2018-07-03T05:02:32.318Z,1.63
2018-07-03T05:07:34.950Z,1.60
2018-07-03T05:12:37.585Z,1.70
2018-07-03T05:17:40.186Z,1.60
2018-07-03T05:22:42.856Z,1.80
2018-07-03T05:27:45.604Z,1.80
2018-07-03T05:32:48.242Z,1.60
2018-07-03T05:37:50.862Z,1.50
2018-07-03T05:42:53.507Z,1.33
2018-07-03T05:47:56.087Z,1.90
2018-07-03T05:52:58.790Z,2.17
2018-07-03T05:58:01.344Z,2.37
2018-07-03T06:08:13.248Z,3.27
2018-07-03T06:13:15.915Z,3.23
2018-07-03T06:18:18.550Z,2.60
2018-07-03T06:23:21.147Z,2.20
2018-07-03T06:28:23.742Z,1.70
2018-07-03T06:33:26.371Z,1.80
2018-07-03T06:38:28.994Z,1.70
2018-07-03T06:43:31.615Z,1.73
2018-07-03T06:48:34.212Z,1.70
2018-07-03T06:53:36.804Z,1.67
2018-07-03T06:58:39.429Z,1.53
2018-07-03T07:03:42.046Z,1.60
2018-07-03T07:08:44.844Z,1.63
2018-07-03T07:13:47.467Z,1.50
2018-07-03T07:18:50.130Z,1.30
2018-07-03T07:23:53.102Z,1.40
2018-07-03T07:28:55.718Z,1.47
2018-07-03T07:33:58.338Z,1.23
2018-07-03T07:39:01.071Z,1.23
2018-07-03T07:44:04.940Z,1.00
2018-07-03T07:49:07.545Z,1.47
2018-07-03T07:54:10.250Z,1.30
2018-07-03T07:59:12.898Z,1.00
2018-07-03T08:04:15.540Z,0.87
2018-07-03T08:09:18.151Z,0.90
2018-07-03T08:14:20.767Z,1.10
2018-07-03T08:19:23.387Z,1.33
2018-07-03T08:24:26.402Z,1.20
2018-07-03T08:29:29.046Z,1.00
2018-07-03T08:34:31.643Z,1.57
2018-07-03T08:39:34.253Z,0.80
2018-07-03T08:44:36.873Z,1.10
2018-07-03T08:49:39.505Z,0.80
2018-07-03T08:54:42.187Z,0.87
2018-07-03T08:59:44.883Z,1.10
2018-07-03T09:04:47.495Z,1.10
2018-07-03T09:09:50.251Z,1.00
2018-07-03T09:14:52.983Z,0.90
2018-07-03T09:19:55.603Z,1.00
2018-07-03T09:24:58.215Z,1.00
2018-07-03T09:30:00.867Z,1.00
2018-07-03T09:35:03.551Z,0.70
2018-07-03T09:40:06.274Z,1.20
2018-07-03T09:45:08.983Z,1.13
2018-07-03T09:50:11.650Z,0.90
2018-07-03T09:55:14.209Z,0.87
2018-07-03T10:00:21.505Z,1.27
2018-07-03T10:05:24.126Z,1.10
2018-07-03T10:10:27.021Z,0.80
2018-07-03T10:15:29.674Z,1.13
2018-07-03T10:20:32.358Z,1.03
2018-07-03T10:25:34.990Z,1.10
2018-07-03T10:30:37.614Z,0.90
2018-07-03T10:35:40.205Z,1.00
2018-07-03T10:40:42.807Z,0.87
2018-07-03T10:45:45.417Z,1.00
2018-07-03T10:50:48.281Z,0.90
2018-07-03T10:55:50.902Z,1.00
2018-07-03T11:00:53.566Z,1.10
2018-07-03T11:05:56.475Z,1.13
2018-07-03T11:10:59.123Z,1.30
2018-07-03T11:16:01.788Z,0.93
2018-07-03T11:21:04.620Z,1.10
2018-07-03T11:26:07.267Z,0.90
2018-07-03T11:31:09.911Z,1.17
2018-07-03T11:36:12.562Z,1.07
2018-07-03T11:41:15.135Z,1.13
2018-07-03T11:46:18.018Z,1.00
2018-07-03T11:51:20.746Z,1.10
2018-07-03T11:56:23.864Z,1.00
2018-07-03T12:01:26.647Z,1.17
2018-07-03T12:06:29.324Z,1.23
2018-07-03T12:11:31.990Z,1.10
2018-07-03T12:16:34.658Z,1.43
2018-07-03T12:21:37.280Z,1.30
2018-07-03T12:26:39.934Z,1.43
2018-07-03T12:31:42.600Z,1.10
2018-07-03T12:36:45.279Z,1.80
2018-07-03T12:41:47.879Z,1.40
2018-07-03T12:46:50.567Z,1.77
2018-07-03T12:51:53.285Z,1.37
2018-07-03T12:56:55.956Z,1.90
2018-07-03T13:01:59.017Z,1.80
2018-07-03T13:07:01.669Z,1.70
2018-07-03T13:12:04.355Z,1.67
2018-07-03T13:17:07.114Z,2.02
2018-07-03T13:22:09.887Z,2.37
2018-07-03T13:27:12.509Z,2.12
2018-07-03T13:32:15.181Z,2.15
2018-07-03T13:37:17.837Z,2.40
2018-07-03T13:42:20.466Z,2.33
2018-07-03T13:47:23.083Z,2.05
2018-07-03T13:52:25.690Z,2.40
2018-07-03T13:57:28.330Z,2.27
2018-07-03T14:02:30.959Z,2.17
2018-07-03T14:07:33.654Z,2.30
2018-07-03T14:12:36.294Z,2.65
2018-07-03T14:17:39.365Z,2.10
2018-07-03T14:22:42.022Z,2.62
2018-07-03T14:27:44.760Z,2.30
2018-07-03T14:32:50.888Z,2.62
2018-07-03T14:37:56.570Z,2.50
2018-07-03T14:42:59.520Z,2.60
2018-07-03T14:48:02.319Z,2.80
2018-07-03T14:53:06.295Z,2.70
2018-07-03T14:58:08.907Z,2.42
2018-07-03T15:03:11.662Z,2.33
2018-07-03T15:08:14.296Z,2.60
2018-07-03T15:13:16.978Z,2.60
2018-07-03T15:18:19.628Z,2.50
2018-07-03T15:23:22.334Z,2.25
2018-07-03T15:28:25.186Z,2.37
2018-07-03T15:33:27.843Z,2.60
2018-07-03T15:38:30.535Z,2.60
2018-07-03T15:43:33.187Z,2.55
2018-07-03T15:48:35.934Z,2.50
2018-07-03T15:53:38.596Z,2.67
2018-07-03T15:58:41.235Z,2.50
2018-07-03T16:04:01.695Z,2.80
2018-07-03T16:09:12.234Z,3.10
2018-07-03T16:14:14.861Z,3.03
2018-07-03T16:19:23.777Z,2.63
2018-07-03T16:24:26.578Z,2.90
2018-07-03T16:29:29.434Z,2.93
2018-07-03T16:34:32.091Z,3.10
2018-07-03T16:39:34.794Z,3.13
2018-07-03T16:44:37.456Z,2.90
2018-07-03T16:49:40.138Z,3.23
2018-07-03T16:54:42.787Z,3.30
2018-07-03T16:59:45.435Z,3.07
2018-07-03T17:04:48.079Z,3.10
2018-07-03T17:09:50.633Z,3.30
2018-07-03T17:14:53.271Z,3.17
2018-07-03T17:19:55.883Z,3.07
2018-07-03T17:24:58.516Z,3.13
2018-07-03T17:30:01.210Z,2.90
2018-07-03T17:35:03.955Z,2.90
2018-07-03T17:40:17.960Z,3.20
2018-07-03T17:45:42.379Z,2.97
2018-07-03T17:50:44.998Z,3.37
2018-07-03T17:55:47.724Z,3.20
2018-07-03T18:00:50.431Z,4.00
2018-07-03T18:05:53.179Z,3.47
2018-07-03T18:10:55.871Z,3.30
2018-07-03T18:15:58.639Z,3.73
2018-07-03T18:21:01.305Z,3.40
2018-07-03T18:26:04.135Z,3.77
2018-07-03T18:31:06.958Z,3.57
2018-07-03T18:36:09.645Z,3.83
2018-07-03T18:41:12.413Z,3.70
2018-07-03T18:46:15.093Z,3.20
2018-07-03T18:51:17.837Z,2.97
2018-07-03T18:56:20.501Z,4.00
2018-07-03T19:01:23.259Z,3.80
2018-07-03T19:06:25.908Z,4.00
2018-07-03T19:11:28.571Z,3.80
2018-07-03T19:16:31.516Z,3.97
2018-07-03T19:21:34.221Z,3.67
2018-07-03T19:26:37.128Z,3.90
2018-07-03T19:31:39.763Z,3.47
2018-07-03T19:36:42.595Z,3.60
2018-07-03T19:41:45.158Z,3.50
2018-07-03T19:46:47.730Z,3.80
2018-07-03T19:51:50.481Z,3.43
2018-07-03T19:56:53.142Z,3.57
2018-07-03T20:01:55.863Z,3.37
2018-07-03T20:06:58.507Z,3.87
2018-07-03T20:12:01.243Z,3.70
2018-07-03T20:17:04.030Z,2.90
2018-07-03T20:22:06.703Z,3.90
2018-07-03T20:27:09.322Z,3.40
2018-07-03T20:32:11.951Z,3.40
2018-07-03T20:37:14.558Z,3.20
2018-07-03T20:42:17.118Z,3.20
2018-07-03T20:47:19.748Z,2.93
2018-07-03T20:52:22.305Z,3.30
2018-07-03T20:57:24.996Z,3.50
2018-07-03T21:02:27.699Z,3.40
2018-07-03T21:07:30.419Z,3.10
2018-07-03T21:12:33.043Z,3.60
2018-07-03T21:17:35.570Z,3.53
2018-07-03T21:22:38.177Z,3.77
2018-07-03T21:27:41.314Z,3.57
2018-07-03T21:32:44.931Z,3.10
2018-07-03T21:37:47.554Z,3.30
2018-07-03T21:42:50.171Z,3.43
2018-07-03T21:47:52.761Z,3.50
2018-07-03T21:52:55.375Z,3.70
2018-07-03T21:57:57.986Z,3.83
2018-07-03T22:03:00.598Z,3.40
2018-07-03T22:08:03.809Z,3.50
2018-07-03T22:13:06.416Z,3.30
2018-07-03T22:18:09.056Z,2.87
2018-07-03T22:23:11.697Z,3.00
2018-07-03T22:28:14.229Z,3.47
2018-07-03T22:33:16.838Z,3.73
2018-07-03T22:38:19.450Z,3.40
2018-07-03T22:43:22.114Z,3.47
2018-07-03T22:48:24.727Z,4.00
2018-07-03T22:53:27.331Z,3.60
2018-07-03T22:58:29.948Z,3.37
2018-07-03T23:03:32.646Z,3.30
2018-07-03T23:08:35.265Z,3.33
2018-07-03T23:13:37.855Z,3.30
2018-07-03T23:18:40.458Z,3.93
2018-07-03T23:23:43.194Z,3.80
2018-07-03T23:28:45.808Z,3.17
2018-07-03T23:33:48.420Z,3.43
2018-07-03T23:38:51.027Z,3.40
2018-07-03T23:43:53.821Z,3.57
2018-07-03T23:49:07.851Z,3.57
2018-07-03T23:54:27.881Z,3.27
2018-07-03T23:59:48.062Z,3.23
